Flight Track Log - Related Links

Times and Time Zones

All times are in EDT time to prevent confusion due to time zone crossing. See the GJS3618 flight status page for this flight to view local times or setup timezone preferences in your user account.

Time Position Orientation Groundspeed Altitude Reporting Facility
EDT Latitude Longitude Course Direction KTS MPH feet Rate Location/Type
Fri 10:49:49 PM 42.0167 -87.9500 270° West 178 205 1,900  Level Chicago TRACON
Fri 10:50:49 PM 42.0500 -88.0000 312° West 220 253 4,000 2,238 Climbing Chicago TRACON
Fri 10:53:02 PM 42.1342 -88.1628 305° West 267 307 9,100 2,072 Climbing Chicago Center
Fri 10:54:03 PM 42.1250 -88.2689 263° West 282 325 10,700 1,623 Climbing Chicago Center
Fri 10:55:00 PM 41.9667 -88.7998 270° West  Level FlightAware Approximate
Fri 10:55:04 PM 42.1197 -88.3914 267° West 316 364 12,400  Level Chicago Center
Fri 10:56:05 PM 42.1161 -88.5200 268° West 339 390 14,100 1,659 Climbing Chicago Center
Fri 10:57:07 PM 42.1125 -88.6511 268° West 348 400 15,800 1,659 Climbing Chicago Center
Fri 10:58:08 PM 42.1075 -88.7875 267° West 362 417 17,500 1,672 Climbing Chicago Center
Fri 10:59:09 PM 42.1036 -88.9533 268° West 371 427 19,200 1,377 Climbing Chicago Center
Fri 11:00:10 PM 42.0983 -89.0972 267° West 379 436 20,300 1,180 Climbing Chicago Center
Fri 11:01:11 PM 42.0928 -89.2503 267° West 406 467 21,600 1,230 Climbing Chicago Center
Fri 11:02:12 PM 42.0897 -89.4039 269° West 409 471 22,800 1,230 Climbing Chicago Center
Fri 11:03:13 PM 42.0883 -89.5594 269° West 414 476 24,100 1,230 Climbing Chicago Center
Fri 11:04:14 PM 42.0878 -89.7178 270° West 419 482 25,300 934 Climbing Chicago Center
Fri 11:05:15 PM 42.0842 -89.8775 268° West 425 489 26,000 689 Climbing Chicago Center
Fri 11:06:16 PM 42.0800 -90.0214 268° West 433 498 26,700 738 Climbing Chicago Center
Fri 11:07:17 PM 42.1197 -90.2100 286° West 439 505 27,500 738 Climbing Chicago Center
Fri 11:08:18 PM 42.1581 -90.3647 289° West 441 507 28,200 689 Climbing Chicago Center
Fri 11:09:19 PM 42.2000 -90.5197 290° West 443 510 28,900 689 Climbing Chicago Center
Fri 11:10:20 PM 42.2436 -90.6739 291° West 444 511 29,600 689 Climbing Chicago Center
Fri 11:11:21 PM 42.2867 -90.8283 291° West 443 510 30,300 694 Climbing Chicago Center
Fri 11:12:21 PM 42.3292 -90.9853 290° West 447 514 31,000 694 Climbing Chicago Center
Fri 11:13:22 PM 42.3717 -91.1400 290° West 443 510 31,700 689 Climbing Chicago Center
Fri 11:14:23 PM 42.4139 -91.2956 290° West 442 509 32,400 689 Climbing Chicago Center
Fri 11:15:24 PM 42.4542 -91.4514 289° West 442 509 33,100 689 Climbing Chicago Center
Fri 11:16:25 PM 42.4958 -91.6058 290° West 437 503 33,800 689 Climbing Chicago Center
Fri 11:17:26 PM 42.5358 -91.7583 290° West 430 495 34,500 787 Climbing Chicago Center
Fri 11:18:27 PM 42.5844 -91.9397 290° West 426 490 35,400 738 Climbing Chicago Center
Fri 11:19:28 PM 42.6228 -92.0878 289° West 420 483 36,000 298 Climbing Chicago Center
Fri 11:20:28 PM 42.6617 -92.2378 289° West 421 484 36,000  Level Chicago Center
Fri 11:21:29 PM 42.7006 -92.3897 289° West 426 490 36,000  Level Chicago Center
Fri 11:22:30 PM 42.7406 -92.5433 290° West 433 498 36,000  Level Chicago Center
Fri 11:23:23 PM 42.7722 -92.6681 289° West 433 498 36,000  Level Minneapolis Center
Fri 11:24:24 PM 42.8108 -92.8233 289° West 436 502 36,000  Level Minneapolis Center
Fri 11:25:25 PM 42.8497 -92.9775 289° West 434 499 36,000  Level Minneapolis Center
Fri 11:26:26 PM 42.8964 -93.1603 289° West 430 495 36,000  Level Minneapolis Center
Fri 11:27:27 PM 42.9344 -93.3131 289° West 429 494 36,000  Level Minneapolis Center
Fri 11:28:28 PM 42.9728 -93.4658 289° West 430 495 36,000  Level Minneapolis Center
Fri 11:29:29 PM 43.0133 -93.6178 290° West 429 494 36,000  Level Minneapolis Center
Fri 11:30:30 PM 43.0453 -93.7739 286° West 430 495 36,000  Level Minneapolis Center
Fri 11:31:31 PM 43.0808 -93.9281 288° West 430 495 36,000  Level Minneapolis Center
Fri 11:32:32 PM 43.1206 -94.0833 289° West 433 498 36,000  Level Minneapolis Center
Fri 11:33:32 PM 43.1664 -94.2678 289° West 433 498 36,000  Level Minneapolis Center
Fri 11:34:33 PM 43.2044 -94.4211 289° West 427 491 36,000  Level Minneapolis Center
Fri 11:35:34 PM 43.2414 -94.5781 288° West 431 496 36,000  Level Minneapolis Center
Fri 11:36:35 PM 43.2778 -94.7342 288° West 430 495 36,000  Level Minneapolis Center
Fri 11:37:36 PM 43.3136 -94.8933 287° West 436 502 36,000  Level Minneapolis Center
Fri 11:38:37 PM 43.3506 -95.0467 288° West 427 491 36,000  Level Minneapolis Center
Fri 11:39:38 PM 43.3858 -95.2031 287° West 427 491 36,000  Level Minneapolis Center
Fri 11:40:39 PM 43.4211 -95.3594 287° West 428 493 36,000  Level Minneapolis Center
Fri 11:41:40 PM 43.4561 -95.5144 287° West 426 490 36,000  Level Minneapolis Center
Fri 11:42:41 PM 43.4917 -95.6725 287° West 429 494 36,000  Level Minneapolis Center
Fri 11:43:42 PM 43.5269 -95.8308 287° West 431 496 36,000  Level Minneapolis Center
Fri 11:44:43 PM 43.5617 -95.9892 287° West 431 496 36,000  Level Minneapolis Center
Fri 11:45:44 PM 43.5967 -96.1492 287° West 433 498 36,000  Level Minneapolis Center
Fri 11:46:45 PM 43.6319 -96.3094 287° West 434 499 36,000  Level Minneapolis Center
Fri 11:47:46 PM 43.6664 -96.4694 287° West 433 498 36,000  Level Minneapolis Center
Fri 11:48:46 PM 43.7008 -96.6308 286° West 435 501 36,000  Level Minneapolis Center
Fri 11:49:47 PM 43.7350 -96.7931 286° West 437 503 36,000  Level Minneapolis Center
Fri 11:50:48 PM 43.7764 -96.9850 287° West 434 499 36,000  Level Minneapolis Center
Fri 11:51:49 PM 43.8097 -97.1467 286° West 436 502 36,000  Level Minneapolis Center
Fri 11:52:50 PM 43.8439 -97.3094 286° West 439 505 36,000  Level Minneapolis Center
Fri 11:53:51 PM 43.8772 -97.4708 286° West 436 502 36,000  Level Minneapolis Center
Fri 11:54:52 PM 43.9092 -97.6322 285° West 436 502 36,000  Level Minneapolis Center
Fri 11:55:52 PM 43.9417 -97.7942 286° West 435 501 36,000  Level Minneapolis Center
Fri 11:56:53 PM 43.9753 -97.9547 286° West 434 499 36,000  Level Minneapolis Center
Fri 11:57:54 PM 44.0075 -98.1147 286° West 432 497 36,000  Level Minneapolis Center
Fri 11:58:56 PM 44.0389 -98.2769 285° West 434 499 36,000  Level Minneapolis Center
Fri 11:59:57 PM 44.0703 -98.4394 285° West 436 502 36,000  Level Minneapolis Center
Sat 12:00:58 AM 44.1019 -98.6025 285° West 437 503 36,000  Level Minneapolis Center
Sat 12:01:59 AM 44.1353 -98.7811 285° West 442 509 36,000  Level Minneapolis Center
Sat 12:03:00 AM 44.1667 -98.9453 285° West 439 505 36,000  Level Minneapolis Center
Sat 12:04:01 AM 44.1972 -99.1083 285° West 437 503 36,000  Level Minneapolis Center
Sat 12:05:02 AM 44.2300 -99.2719 286° West 438 504 36,000  Level Minneapolis Center
Sat 12:06:02 AM 44.2603 -99.4372 284° West 439 505 36,000  Level Minneapolis Center
Sat 12:07:03 AM 44.2892 -99.6028 284° West 438 504 36,000  Level Minneapolis Center
Sat 12:08:04 AM 44.3192 -99.7697 284° West 440 506 36,000  Level Minneapolis Center
Sat 12:09:05 AM 44.3497 -99.9361 284° West 441 507 36,000  Level Minneapolis Center
Sat 12:10:05 AM 44.3806 -100.1028 285° West 440 506 36,000  Level Minneapolis Center
Sat 12:11:06 AM 44.4097 -100.2689 284° West 439 505 36,000  Level Minneapolis Center
Sat 12:12:07 AM 44.4383 -100.4358 284° West 439 505 36,000  Level Minneapolis Center
Sat 12:13:08 AM 44.4683 -100.6011 284° West 438 504 36,000  Level Minneapolis Center
Sat 12:14:08 AM 44.4967 -100.7664 284° West 437 503 36,000  Level Minneapolis Center
Sat 12:15:09 AM 44.5247 -100.9322 283° West 437 503 36,000  Level Minneapolis Center
Sat 12:16:10 AM 44.5536 -101.0983 284° West 437 503 36,000  Level Minneapolis Center
Sat 12:17:10 AM 44.5817 -101.2642 283° West 437 503 36,000  Level Minneapolis Center
Sat 12:18:11 AM 44.6181 -101.4653 284° West 440 506 36,000 49 Level Minneapolis Center
Sat 12:19:12 AM 44.6453 -101.6325 283° West 439 505 36,100 393 Climbing Minneapolis Center
Sat 12:20:13 AM 44.6714 -101.7989 282° West 438 504 36,800 645 Climbing Minneapolis Center
Sat 12:21:13 AM 44.6986 -101.9614 283° West 432 497 37,400 595 Climbing Minneapolis Center
Sat 12:22:14 AM 44.7242 -102.1231 283° West 426 490 38,000 364 Climbing Minneapolis Center
Sat 12:22:52 AM 44.7367 -102.2169 281° West 421 484 38,000  Level Denver Center
Sat 12:23:53 AM 44.7628 -102.3758 283° West 418 481 38,000  Level Denver Center
Sat 12:24:54 AM 44.7875 -102.5381 282° West 421 484 38,000  Level Denver Center
Sat 12:25:55 AM 44.8128 -102.7003 282° West 423 487 38,000  Level Denver Center
Sat 12:26:56 AM 44.8378 -102.8622 282° West 424 488 38,000  Level Denver Center
Sat 12:27:57 AM 44.8631 -103.0256 282° West 426 490 38,000  Level Denver Center
Sat 12:28:58 AM 44.8861 -103.1906 281° West 428 493 38,000  Level Denver Center
Sat 12:29:38 AM 44.9039 -103.2989 283° West 425 489 38,000  Level Salt Lake Center
Sat 12:30:39 AM 44.9314 -103.4822 282° West 427 491 38,000  Level Salt Lake Center
Sat 12:31:41 AM 44.9544 -103.6394 282° West 428 493 38,000  Level Salt Lake Center
Sat 12:32:42 AM 44.9761 -103.7992 281° West 431 496 38,000  Level Salt Lake Center
Sat 12:33:43 AM 45.0039 -103.9847 282° West 432 497 38,000  Level Salt Lake Center
Sat 12:34:44 AM 45.0253 -104.1450 281° West 434 499 38,000  Level Salt Lake Center
Sat 12:35:45 AM 45.0386 -104.3317 276° West 430 495 38,000  Level Salt Lake Center
Sat 12:36:46 AM 45.0506 -104.4919 276° West 430 495 38,000  Level Salt Lake Center
Sat 12:37:48 AM 45.0581 -104.6617 274° West 428 493 38,000  Level Salt Lake Center
Sat 12:38:49 AM 45.0678 -104.8253 275° West 422 486 38,000  Level Salt Lake Center
Sat 12:39:50 AM 45.0783 -104.9925 275° West 427 491 38,000  Level Salt Lake Center
Sat 12:40:51 AM 45.0878 -105.1542 275° West 417 480 38,000  Level Salt Lake Center
Sat 12:41:52 AM 45.0944 -105.3178 273° West 417 480 38,000  Level Salt Lake Center
Sat 12:42:54 AM 45.1008 -105.4828 273° West 422 486 38,000  Level Salt Lake Center
Sat 12:43:55 AM 45.1175 -105.6778 277° West 419 482 38,000  Level Salt Lake Center
Sat 12:44:56 AM 45.1417 -105.8425 282° West 427 491 38,000  Level Salt Lake Center
Sat 12:45:57 AM 45.1667 -106.0064 282° West 427 491 38,000  Level Salt Lake Center
Sat 12:46:58 AM 45.1903 -106.1717 282° West 429 494 38,000  Level Salt Lake Center
Sat 12:47:59 AM 45.2136 -106.3367 281° West 429 494 38,000  Level Salt Lake Center
Sat 12:49:00 AM 45.2358 -106.5025 281° West 429 494 38,000  Level Salt Lake Center
Sat 12:50:01 AM 45.2603 -106.6681 282° West 431 496 38,000  Level Salt Lake Center
Sat 12:51:03 AM 45.2817 -106.8336 280° West 430 495 38,000  Level Salt Lake Center
Sat 12:52:04 AM 45.3031 -107.0003 280° West 430 495 38,000  Level Salt Lake Center
Sat 12:53:05 AM 45.3256 -107.1661 281° West 430 495 38,000  Level Salt Lake Center
Sat 12:54:06 AM 45.3503 -107.3644 280° West 428 493 38,000  Level Salt Lake Center
Sat 12:55:07 AM 45.3719 -107.5325 280° West 435 501 38,000  Level Salt Lake Center
Sat 12:56:08 AM 45.3936 -107.7003 280° West 435 501 38,000  Level Salt Lake Center
Sat 12:57:09 AM 45.4147 -107.8672 280° West 433 498 38,000  Level Salt Lake Center
Sat 12:58:10 AM 45.4350 -108.0350 280° West 433 498 38,000  Level Salt Lake Center
Sat 12:59:11 AM 45.4564 -108.2053 280° West 439 505 38,000  Level Salt Lake Center
Sat 01:00:12 AM 45.4761 -108.3742 280° West 437 503 38,000  Level Salt Lake Center
Sat 01:01:13 AM 45.4967 -108.5431 280° West 435 501 38,000  Level Salt Lake Center
Sat 01:02:14 AM 45.5164 -108.7128 279° West 437 503 38,000 -639 Level Salt Lake Center
Sat 01:03:15 AM 45.5400 -108.9183 279° West 441 507 36,700 -1,377 Descending Salt Lake Center
Sat 01:04:16 AM 45.5600 -109.0931 279° West 449 517 35,200 -1,328 Descending Salt Lake Center
Sat 01:05:17 AM 45.5811 -109.2725 280° West 463 533 34,000 -1,279 Descending Salt Lake Center
Sat 01:06:18 AM 45.6014 -109.4497 279° West 457 526 32,600 -1,475 Descending Salt Lake Center
Sat 01:07:19 AM 45.6217 -109.6303 279° West 462 532 31,000 -1,721 Descending Salt Lake Center
Sat 01:08:20 AM 45.6411 -109.8128 279° West 467 537 29,100 -1,918 Descending Salt Lake Center
Sat 01:09:21 AM 45.6603 -109.9917 279° West 459 528 27,100 -2,132 Descending Salt Lake Center
Sat 01:10:21 AM 45.6797 -110.1661 279° West 450 518 24,800 -2,331 Descending Salt Lake Center
Sat 01:11:22 AM 45.6969 -110.3356 278° West 437 503 22,400 -2,311 Descending Salt Lake Center
Sat 01:12:23 AM 45.7122 -110.4964 278° West 417 480 20,100 -2,115 Descending Salt Lake Center
Sat 01:13:24 AM 45.7275 -110.6433 279° West 387 445 18,100 -2,016 Descending Salt Lake Center
Sat 01:14:25 AM 45.7400 -110.7769 278° West 352 405 16,000 -2,262 Descending Salt Lake Center
Sat 01:15:26 AM 45.7542 -110.9086 279° West 339 390 13,500 -2,132 Descending Salt Lake Center
Sat 01:16:26 AM 45.7694 -111.0464 279° West 329 379 11,700 -1,800 Descending Salt Lake Center
Sat 01:18:00 AM 45.7667 -111.1500 270° West  Level FlightAware Approximate
Sat 01:25:00 AM 45.7776 -111.1520 270° West  Level Estimated
Sat 01:26:00 AM 45.7776 -111.1520 270° West  Level Estimated
Sat 01:27:00 AM 45.7776 -111.1520 270° West  Level Estimated
Sat 01:28:00 AM 45.7776 -111.1520 270° West  Level Estimated

Login

Don't have an account? Register now (free) for customized features, flight alerts, and more!